Time;durP1;ratioP1;P1;durP2;ratioP2;P2;SDS_P1;SDS_P2;PMS_P1;PMS_P2;Temp;Humidity;BMP_temperature;BMP_pressure;BME280_temperature;BME280_humidity;BME280_pressure;Samples;Min_cycle;Max_cycle;Signal;HPM_P1;HPM_P2
2023/12/27 12:48:31;;;;;;;3.50;2.20;;;16.00;77.10;;;16.33;39.31;98830.69;5786016;23;98135;-92
2023/12/27 13:15:33;;;;;;;2.80;1.70;;;16.40;74.70;;;16.63;38.42;98808.09;5733478;23;98138;-92
2023/12/27 15:12:30;;;;;;;5.40;2.60;;;14.90;75.20;;;14.90;41.26;98747.81;5446115;23;97594;-91
2023/12/27 15:15:09;;;;;;;7.43;3.20;;;14.90;75.30;;;14.82;41.17;98747.91;4884154;28;123681;-91
2023/12/27 15:23:00;;;;;;;5.17;2.70;;;14.70;75.40;;;14.69;41.51;98749.81;4934810;23;97324;-89
2023/12/27 15:25:45;;;;;;;5.70;3.20;;;14.70;76.50;;;14.60;41.53;98744.34;4915503;28;123823;-91
2023/12/27 15:28:14;;;;;;;4.07;2.67;;;14.60;75.80;;;14.56;41.79;98758.13;4904520;28;114188;-91
2023/12/27 15:30:43;;;;;;;4.47;2.53;;;16.20;77.50;;;14.50;41.84;98745.53;4900798;28;114334;-91
2023/12/27 15:33:36;;;;;;;3.50;2.27;;;14.50;76.10;;;14.45;42.06;98747.72;4898207;28;124315;-92
2023/12/27 15:36:03;;;;;;;4.73;2.60;;;14.40;76.00;;;14.40;42.03;98743.19;4899005;28;123793;-91
2023/12/27 15:38:32;;;;;;;3.53;2.43;;;14.30;76.10;;;14.35;41.99;98737.84;4901195;28;113687;-92
2023/12/27 15:40:59;;;;;;;2.93;2.10;;;14.30;76.30;;;14.30;42.42;98749.16;4898027;28;113537;-92
2023/12/27 15:43:33;;;;;;;6.37;2.67;;;14.30;76.40;;;14.26;42.34;98740.66;4907567;28;123626;-93
2023/12/27 15:46:00;;;;;;;5.90;2.77;;;14.20;76.30;;;14.21;42.48;98745.59;4898517;28;123384;-89
2023/12/27 15:48:29;;;;;;;3.40;2.43;;;14.10;76.40;;;14.16;42.60;98743.84;4909703;28;114713;-91
2023/12/27 15:51:00;;;;;;;3.43;2.30;;;14.10;76.50;;;14.12;42.47;98732.59;4894332;28;114056;-90
2023/12/27 15:54:03;;;;;;;5.90;3.00;;;14.10;76.70;;;14.07;42.66;98729.19;4895980;28;125075;-90
2023/12/27 15:56:38;;;;;;;4.80;2.10;;;14.00;76.80;;;14.04;42.86;98741.78;4894102;28;122179;-91
2023/12/27 15:59:13;;;;;;;4.43;2.60;;;14.00;77.00;;;14.00;43.06;98729.75;4889723;28;113650;-92
2023/12/27 16:01:48;;;;;;;5.07;2.40;;;13.90;77.00;;;13.96;43.07;98734.34;4908604;28;112992;-90
2023/12/27 16:04:23;;;;;;;4.70;2.40;;;13.90;77.20;;;13.91;43.16;98732.56;4903677;28;123463;-91
2023/12/27 16:06:54;;;;;;;7.20;2.23;;;13.80;77.20;;;13.87;43.28;98725.25;4885210;28;124552;-88
2023/12/27 16:09:26;;;;;;;5.40;2.33;;;14.60;78.20;;;13.82;43.22;98723.47;4891916;28;113811;-91
2023/12/27 16:12:00;;;;;;;4.27;2.67;;;13.80;77.50;;;13.78;43.44;98730.03;4890356;28;113051;-90
2023/12/27 16:14:35;;;;;;;6.47;2.70;;;13.70;77.60;;;13.74;43.48;98731.88;4893209;28;123917;-90
2023/12/27 16:17:26;;;;;;;4.50;2.63;;;13.60;77.70;;;13.67;43.74;98730.44;4901357;28;123278;-90
2023/12/27 16:20:04;;;;;;;4.83;2.53;;;14.70;78.90;;;13.64;43.47;98731.06;4900460;28;96473;-90
2023/12/27 16:22:32;;;;;;;4.40;2.63;;;13.50;77.70;;;13.61;43.51;98728.97;4898478;28;113206;-89
2023/12/27 16:25:00;;;;;;;7.90;3.20;;;13.50;77.70;;;13.58;43.37;98728.84;4903404;28;124289;-90
2023/12/27 16:27:54;;;;;;;3.17;2.20;;;13.50;77.70;;;13.53;43.63;98729.03;4916471;28;123945;-91
2023/12/27 16:30:23;;;;;;;4.50;2.83;;;13.40;77.70;;;13.49;43.69;98728.88;4919034;28;113928;-90
2023/12/27 16:33:49;;;;;;;4.10;2.50;;;13.50;78.00;;;13.42;43.83;98723.03;4920683;28;114820;-91
2023/12/27 16:40:01;;;;;;;4.80;2.53;;;13.30;78.20;;;13.29;44.21;98740.72;4923208;28;124733;-88
2023/12/27 16:46:10;;;;;;;4.10;2.93;;;13.20;78.40;;;13.20;44.26;98741.53;4924194;28;115871;-85
2023/12/27 16:49:22;;;;;;;5.40;3.07;;;13.10;78.40;;;13.15;44.31;98727.81;4923786;28;126368;-78
2023/12/27 16:55:31;;;;;;;6.13;3.10;;;13.00;78.50;;;13.07;44.56;98725.91;4924082;28;116674;-90
2023/12/27 17:01:42;;;;;;;5.30;3.20;;;12.90;78.90;;;12.98;44.88;98716.81;4923830;28;125094;-79
2023/12/27 17:07:50;;;;;;;7.03;3.73;;;12.90;79.30;;;12.90;45.02;98709.31;4923932;28;115282;-84
2023/12/27 17:11:19;;;;;;;7.10;3.90;;;12.80;79.40;;;12.84;45.25;98711.44;5091827;23;113044;-80
2023/12/27 17:13:51;;;;;;;6.10;3.70;;;12.80;79.70;;;12.83;45.60;98698.72;4854707;28;124861;-78
2023/12/27 17:16:18;;;;;;;7.17;3.53;;;12.70;79.90;;;12.80;45.52;98716.81;4868362;28;123797;-77
2023/12/27 17:18:45;;;;;;;5.90;3.97;;;12.70;80.00;;;12.79;45.69;98714.41;4870881;28;114362;-78
2023/12/27 17:21:15;;;;;;;7.20;4.47;;;12.60;80.30;;;12.76;45.83;98710.31;4858294;28;112555;-78
2023/12/27 17:23:51;;;;;;;7.57;3.90;;;14.40;82.10;;;12.73;45.89;98710.16;4863926;28;123364;-77
2023/12/27 17:26:18;;;;;;;7.83;4.23;;;12.60;80.60;;;12.69;46.00;98717.50;4861335;28;124026;-77
2023/12/27 17:28:44;;;;;;;6.97;4.77;;;12.60;80.80;;;12.67;46.05;98717.81;4868865;28;114062;-78
2023/12/27 17:31:10;;;;;;;11.20;3.73;;;12.50;80.90;;;12.63;46.25;98722.41;4872405;28;115873;-78
2023/12/27 17:33:47;;;;;;;7.30;3.83;;;12.50;81.00;;;12.60;46.38;98720.31;4852858;28;123938;-79
2023/12/27 17:36:17;;;;;;;8.77;4.60;;;12.40;81.00;;;12.56;46.40;98719.31;4837936;28;123772;-78
2023/12/27 17:38:46;;;;;;;8.40;5.27;;;12.50;81.20;;;12.54;46.34;98719.63;4870142;28;115730;-80
2023/12/27 17:41:15;;;;;;;8.23;4.20;;;12.30;81.20;;;12.50;46.52;98721.44;4863589;28;115613;-79
2023/12/27 17:43:42;;;;;;;7.73;4.43;;;12.40;81.40;;;12.46;46.61;98723.22;4866680;28;124160;-79
2023/12/27 17:46:08;;;;;;;8.07;4.90;;;12.30;81.50;;;12.44;46.52;98725.53;4873482;28;122746;-79
2023/12/27 17:48:38;;;;;;;10.90;5.50;;;12.30;81.60;;;12.42;46.82;98725.03;4858839;28;114474;-79
2023/12/27 17:51:04;;;;;;;12.83;5.10;;;12.30;81.70;;;12.37;46.82;98714.91;4873982;28;114163;-78
2023/12/27 17:53:31;;;;;;;7.97;4.70;;;12.20;81.70;;;12.36;46.83;98713.28;4870163;28;123815;-80
2023/12/27 17:55:59;;;;;;;7.23;4.13;;;12.20;81.90;;;12.35;46.85;98717.19;4861887;28;123227;-80
2023/12/27 17:58:26;;;;;;;7.50;4.90;;;12.10;82.00;;;12.33;47.19;98718.66;4878216;28;114676;-81
2023/12/27 18:00:53;;;;;;;7.70;4.70;;;12.10;82.10;;;12.29;47.05;98712.97;4878834;28;113568;-78
2023/12/27 18:03:22;;;;;;;8.13;4.50;;;12.10;82.10;;;12.26;47.20;98724.69;4874178;28;124122;-79
2023/12/27 18:05:51;;;;;;;9.47;4.87;;;12.10;82.10;;;12.23;47.21;98728.13;4874098;28;123793;-79
2023/12/27 18:08:22;;;;;;;9.63;5.00;;;12.20;82.20;;;12.20;47.09;98723.25;4870539;28;114308;-79
2023/12/27 18:10:48;;;;;;;8.63;4.00;;;12.00;82.10;;;12.17;47.29;98718.34;4840079;28;114086;-80
2023/12/27 18:13:15;;;;;;;8.93;4.30;;;12.00;82.30;;;12.14;47.20;98717.03;4823974;29;123025;-79
2023/12/27 18:15:42;;;;;;;8.10;4.80;;;12.00;82.40;;;12.13;47.34;98712.63;4807804;29;123782;-79
2023/12/27 18:18:09;;;;;;;12.03;4.37;;;12.30;82.70;;;12.08;47.22;98711.97;4804193;29;114476;-77
2023/12/27 18:20:37;;;;;;;9.60;5.00;;;12.20;82.60;;;12.06;47.19;98722.56;4804358;29;112979;-79
2023/12/27 18:23:04;;;;;;;7.83;4.70;;;11.90;82.40;;;12.02;47.20;98716.88;4830671;29;124200;-78
2023/12/27 18:25:30;;;;;;;10.50;5.73;;;11.80;82.30;;;11.94;47.33;98712.94;4822474;29;123650;-80
2023/12/27 18:27:59;;;;;;;7.50;4.47;;;12.00;82.40;;;11.85;47.06;98703.78;4831360;29;116894;-78
2023/12/27 18:30:26;;;;;;;9.20;4.53;;;11.70;82.20;;;11.78;47.29;98697.91;4841048;29;114487;-78
2023/12/27 18:32:52;;;;;;;7.37;4.80;;;11.60;82.30;;;11.74;47.63;98696.94;4815881;29;123730;-79
2023/12/27 18:35:21;;;;;;;12.53;6.27;;;11.90;82.80;;;11.73;47.45;98696.09;4819801;29;123991;-78
2023/12/27 18:37:47;;;;;;;10.30;5.20;;;11.60;82.70;;;11.68;47.50;98700.97;4830868;29;114559;-77
2023/12/27 18:40:18;;;;;;;13.60;5.70;;;11.50;82.80;;;11.67;48.16;98708.47;4828982;29;114108;-78
2023/12/27 18:42:46;;;;;;;13.03;6.80;;;11.50;82.90;;;11.66;48.44;98700.47;4817149;29;125918;-80
2023/12/27 18:45:16;;;;;;;11.57;6.00;;;12.00;83.60;;;11.65;48.35;98710.72;4827009;29;122296;-84
2023/12/27 18:47:49;;;;;;;11.97;5.70;;;11.50;83.30;;;11.64;48.43;98691.69;4835417;29;114256;-81
2023/12/27 18:50:19;;;;;;;8.40;4.57;;;11.50;83.40;;;11.62;48.23;98696.72;4822713;29;113412;-84
2023/12/27 18:52:47;;;;;;;10.33;5.50;;;11.50;83.60;;;11.60;48.46;98699.00;4823204;29;123878;-81
2023/12/27 18:55:17;;;;;;;10.60;5.53;;;11.40;83.50;;;11.60;48.27;98690.69;4837096;29;123742;-80
2023/12/27 18:57:45;;;;;;;11.00;5.53;;;11.40;83.60;;;11.59;48.23;98683.53;4811176;29;113878;-83
2023/12/27 19:00:13;;;;;;;9.70;5.17;;;11.40;83.60;;;11.56;48.47;98689.72;4831109;29;113322;-78
2023/12/27 19:02:42;;;;;;;9.70;5.07;;;11.40;83.70;;;11.56;48.41;98684.19;4817620;29;124731;-78
2023/12/27 19:05:09;;;;;;;7.60;5.10;;;11.40;83.80;;;11.56;48.45;98689.72;4815404;29;123654;-77
2023/12/27 19:07:35;;;;;;;7.93;4.63;;;11.40;83.80;;;11.57;48.63;98694.13;4823095;29;114279;-78
2023/12/27 19:10:03;;;;;;;7.50;5.20;;;11.40;84.00;;;11.56;47.97;98684.19;4835289;29;114929;-78
2023/12/27 19:12:30;;;;;;;13.00;6.00;;;11.30;83.80;;;11.55;48.38;98685.31;4829019;28;122904;-77
2023/12/27 19:15:00;;;;;;;13.80;6.37;;;11.40;83.90;;;11.52;48.16;98699.78;4856239;28;123849;-79
2023/12/27 19:17:33;;;;;;;13.10;6.50;;;11.30;83.90;;;11.49;48.86;98712.31;4857519;28;115528;-79
2023/12/27 19:20:09;;;;;;;11.67;5.93;;;11.30;83.90;;;11.46;48.78;98708.22;4837106;29;114964;-78
2023/12/27 19:22:36;;;;;;;15.50;6.60;;;12.20;85.10;;;11.41;49.00;98710.34;4838505;28;126354;-79
2023/12/27 19:25:05;;;;;;;14.43;6.77;;;11.20;84.10;;;11.39;48.93;98707.06;4853977;28;123732;-80
2023/12/27 19:27:34;;;;;;;10.70;5.67;;;11.20;84.30;;;11.34;48.97;98713.59;4839963;28;114035;-78
2023/12/27 19:30:05;;;;;;;10.83;6.37;;;11.20;84.30;;;11.32;49.21;98713.06;4854190;28;114251;-78
2023/12/27 19:32:32;;;;;;;10.30;5.93;;;11.10;84.30;;;11.29;49.28;98713.72;4856789;28;123781;-79
2023/12/27 19:34:58;;;;;;;10.20;5.90;;;11.10;84.40;;;11.28;49.18;98701.84;4853874;29;123807;-78
2023/12/27 19:37:30;;;;;;;15.40;6.33;;;11.10;84.50;;;11.26;49.06;98704.09;4837020;29;114199;-84
2023/12/27 19:39:57;;;;;;;13.90;6.43;;;11.10;85.00;;;11.24;49.44;98713.84;4854013;28;114114;-78
2023/12/27 19:42:25;;;;;;;11.40;6.00;;;11.00;84.70;;;11.23;49.40;98704.75;4840675;28;123065;-76
2023/12/27 19:44:51;;;;;;;10.60;5.30;;;11.00;84.80;;;11.21;49.44;98711.72;4850053;28;124685;-77
2023/12/27 19:47:19;;;;;;;10.60;5.87;;;11.40;85.30;;;11.16;49.41;98717.41;4843097;28;114078;-78
2023/12/27 19:49:47;;;;;;;9.67;5.50;;;11.00;84.90;;;11.11;49.75;98712.81;4852521;28;114267;-79
2023/12/27 19:52:16;;;;;;;15.93;6.43;;;11.10;85.20;;;11.08;49.63;98709.88;4852027;28;124151;-78
2023/12/27 19:54:43;;;;;;;9.60;5.57;;;11.80;85.90;;;11.05;49.67;98714.09;4850335;28;123893;-78
2023/12/27 19:57:12;;;;;;;9.90;5.10;;;10.90;85.10;;;11.04;49.82;98713.28;4843737;28;114248;-77
2023/12/27 19:59:38;;;;;;;8.40;5.33;;;10.90;85.10;;;11.04;49.48;98706.91;4844018;28;113796;-80
2023/12/27 20:02:08;;;;;;;9.90;4.83;;;10.80;85.10;;;11.03;49.81;98711.63;4857044;28;124205;-78
2023/12/27 20:04:35;;;;;;;10.77;6.00;;;10.90;85.10;;;11.01;49.68;98702.03;4867752;28;124199;-77
2023/12/27 20:07:02;;;;;;;11.10;5.70;;;10.80;84.90;;;10.99;49.44;98698.78;4853413;29;116221;-78
2023/12/27 20:09:34;;;;;;;11.23;5.10;;;10.80;85.00;;;10.98;49.31;98699.91;4854387;28;114959;-77
2023/12/27 20:12:02;;;;;;;17.50;5.40;;;10.80;85.00;;;10.96;49.36;98708.53;4847304;29;124374;-80
2023/12/27 20:14:29;;;;;;;8.50;5.13;;;10.80;84.90;;;10.96;48.99;98722.34;4851621;28;123771;-78
2023/12/27 20:16:55;;;;;;;6.27;4.30;;;10.70;84.60;;;10.96;48.57;98716.81;4846842;29;114288;-77
2023/12/27 20:19:24;;;;;;;7.73;3.57;;;10.70;84.10;;;10.95;48.04;98720.69;4854378;28;112861;-78
2023/12/27 20:21:52;;;;;;;6.00;3.30;;;10.70;83.10;;;10.96;46.65;98719.59;4843189;29;123883;-78
2023/12/27 20:24:43;;;;;;;6.73;3.53;;;10.70;82.10;;;10.97;45.71;98718.44;4854256;28;122729;-83
2023/12/27 20:27:10;;;;;;;3.97;2.57;;;10.70;80.20;;;10.98;45.54;98725.59;4857203;28;114330;-80
2023/12/27 20:29:38;;;;;;;4.67;2.60;;;12.10;81.20;;;10.99;44.33;98738.31;4850615;29;113704;-83
2023/12/27 20:32:09;;;;;;;4.20;2.57;;;10.70;79.10;;;11.01;43.91;98746.25;4855250;28;123320;-80
2023/12/27 20:34:36;;;;;;;4.47;2.80;;;12.30;80.00;;;10.99;44.16;98743.81;4854972;29;123939;-83
2023/12/27 20:37:04;;;;;;;6.07;2.90;;;10.70;79.20;;;10.99;43.67;98749.34;4830396;29;112102;-80
2023/12/27 20:39:40;;;;;;;4.17;2.60;;;10.70;77.40;;;11.01;43.46;98746.25;4864198;28;113123;-84
2023/12/27 20:42:07;;;;;;;3.73;2.30;;;10.90;77.80;;;11.00;42.81;98750.97;4869038;28;123641;-77
2023/12/27 20:47:29;;;;;;;4.20;2.40;;;9.30;74.90;;;10.97;42.08;98757.16;5058201;23;98862;-81
2023/12/27 20:49:56;;;;;;;3.57;2.70;;;10.70;74.80;;;10.93;42.19;98756.13;4862642;28;112530;-82
2023/12/27 20:52:23;;;;;;;3.20;2.00;;;10.70;75.00;;;10.92;41.61;98742.66;4880220;28;124267;-83
2023/12/27 20:54:49;;;;;;;6.20;3.17;;;10.60;74.00;;;10.92;40.77;98750.94;4870046;28;123079;-80
2023/12/27 20:57:16;;;;;;;2.97;2.07;;;10.70;72.90;;;10.90;41.14;98739.38;4881933;28;115235;-81
2023/12/27 20:59:43;;;;;;;4.80;2.90;;;10.70;72.30;;;10.89;40.39;98738.56;4878848;28;114220;-80
2023/12/27 21:02:10;;;;;;;4.57;2.70;;;10.60;71.80;;;10.88;40.19;98730.56;4861720;28;124512;-81
2023/12/27 21:04:37;;;;;;;4.10;2.47;;;13.90;74.80;;;10.88;40.16;98730.56;4865420;28;122657;-82
2023/12/27 21:07:03;;;;;;;4.23;2.30;;;12.80;74.20;;;10.88;39.53;98725.03;4873430;28;113077;-82
2023/12/27 21:09:30;;;;;;;3.20;2.40;;;10.60;70.40;;;10.86;39.73;98727.34;4877784;28;114222;-83
2023/12/27 21:11:56;;;;;;;3.13;2.23;;;12.30;72.10;;;10.83;39.23;98724.06;4864201;28;123129;-83
2023/12/27 21:14:23;;;;;;;5.20;2.47;;;11.10;69.80;;;10.83;39.12;98726.00;4881226;28;123633;-80
2023/12/27 21:16:49;;;;;;;3.93;2.50;;;10.50;70.00;;;10.80;39.59;98723.84;4880282;28;113303;-82
2023/12/27 21:19:16;;;;;;;4.80;2.17;;;13.00;71.80;;;10.81;39.42;98717.22;4879993;28;114227;-81
2023/12/27 21:21:44;;;;;;;5.30;2.43;;;10.50;69.20;;;10.78;39.29;98712.31;4862900;28;123976;-81
2023/12/27 21:24:15;;;;;;;2.73;1.90;;;8.60;68.50;;;10.81;39.49;98720.78;4867386;28;123157;-84
2023/12/27 21:26:48;;;;;;;3.90;2.27;;;10.60;69.20;;;10.81;39.32;98715.25;4860075;28;112755;-84
2023/12/27 21:29:15;;;;;;;3.40;2.30;;;11.40;70.30;;;10.80;39.34;98719.16;4854646;28;112519;-83
2023/12/27 21:31:43;;;;;;;5.93;2.40;;;11.70;70.40;;;10.82;38.95;98727.94;4872856;28;123645;-82
2023/12/27 21:34:12;;;;;;;3.43;2.07;;;10.50;68.80;;;10.84;38.79;98727.63;4872735;28;123611;-82
2023/12/27 21:36:38;;;;;;;4.03;2.60;;;10.60;69.00;;;10.80;39.07;98721.09;4875889;28;112322;-80
2023/12/27 21:39:06;;;;;;;2.73;2.40;;;11.10;69.00;;;10.79;38.88;98725.81;4860366;28;113706;-78
2023/12/27 21:41:43;;;;;;;3.93;2.20;;;10.50;68.50;;;10.77;39.16;98724.50;4854415;28;123934;-83
2023/12/27 21:44:11;;;;;;;3.60;2.60;;;10.50;68.20;;;10.77;39.02;98725.34;4858067;28;122495;-80
2023/12/27 21:46:39;;;;;;;3.40;2.17;;;10.50;68.50;;;10.79;38.94;98725.81;4874244;28;114773;-77
2023/12/27 21:49:06;;;;;;;3.90;2.20;;;12.40;70.60;;;10.80;39.23;98724.69;4872874;28;114489;-80
2023/12/27 21:51:39;;;;;;;2.80;2.13;;;10.50;68.20;;;10.81;38.89;98728.28;4860337;28;123137;-85
2023/12/27 21:54:11;;;;;;;3.03;2.13;;;10.60;68.00;;;10.81;38.83;98725.50;4864156;28;122072;-85
2023/12/27 21:56:39;;;;;;;3.10;2.17;;;10.60;68.20;;;10.81;39.02;98725.50;4858971;28;114008;-85
2023/12/27 21:59:05;;;;;;;4.13;2.77;;;10.50;68.90;;;10.78;38.86;98720.63;4864811;28;112176;-82
2023/12/27 22:01:34;;;;;;;7.67;2.20;;;13.30;71.00;;;10.76;38.59;98725.63;4843234;28;123442;-80
2023/12/27 22:04:03;;;;;;;4.80;2.50;;;12.40;69.60;;;10.75;38.97;98729.53;4859796;28;124618;-80
2023/12/27 22:06:32;;;;;;;3.40;2.20;;;10.50;67.90;;;10.76;38.80;98728.41;4855901;28;113672;-84
2023/12/27 22:08:59;;;;;;;2.90;2.30;;;10.50;68.10;;;10.74;38.97;98727.88;4874942;28;113400;-80
2023/12/27 22:11:28;;;;;;;3.83;2.17;;;14.40;71.80;;;10.74;38.52;98719.59;4856367;28;123637;-81
2023/12/27 22:13:57;;;;;;;3.30;2.47;;;10.50;67.90;;;10.75;38.91;98732.31;4856504;28;123812;-79
2023/12/27 22:16:26;;;;;;;3.70;2.30;;;10.50;68.00;;;10.75;39.05;98732.31;4846231;28;114188;-84
2023/12/27 22:18:53;;;;;;;3.23;2.13;;;10.50;68.30;;;10.76;39.10;98728.41;4855949;29;112824;-85
2023/12/27 22:21:27;;;;;;;4.33;2.43;;;10.50;68.00;;;10.78;39.07;98737.19;4833564;29;122329;-86
2023/12/27 22:24:00;;;;;;;3.73;2.20;;;13.60;70.90;;;10.76;39.03;98731.16;4811888;29;123430;-82
2023/12/27 22:26:30;;;;;;;3.20;2.53;;;10.80;68.60;;;10.71;39.41;98747.88;4839265;29;112501;-81
2023/12/27 22:29:00;;;;;;;3.20;2.27;;;10.50;67.80;;;10.69;38.88;98745.41;4853161;29;112605;-83
2023/12/27 22:31:32;;;;;;;4.17;2.67;;;10.50;67.60;;;10.70;39.04;98746.25;4845590;29;124075;-83
2023/12/27 22:33:59;;;;;;;3.57;2.30;;;12.70;69.70;;;10.70;38.99;98741.53;4847604;29;122943;-82
2023/12/27 22:36:25;;;;;;;2.67;1.90;;;12.40;69.70;;;10.69;39.10;98733.53;4844099;29;114426;-80
2023/12/27 22:38:53;;;;;;;4.20;2.50;;;10.40;68.00;;;10.71;39.00;98732.09;4836232;29;113413;-80
2023/12/27 22:41:22;;;;;;;3.63;2.57;;;13.10;70.30;;;10.70;38.78;98729.66;4844335;28;124125;-86
2023/12/27 22:43:49;;;;;;;4.57;2.23;;;11.60;68.50;;;10.70;39.12;98724.13;4850091;29;123230;-84
2023/12/27 22:46:18;;;;;;;3.27;2.10;;;12.50;69.60;;;10.72;39.33;98727.38;4819127;29;113434;-86
2023/12/27 22:48:44;;;;;;;4.53;3.00;;;13.10;70.60;;;10.71;38.74;98726.56;4830259;29;112736;-83
2023/12/27 22:51:12;;;;;;;4.00;2.43;;;10.50;67.60;;;10.73;38.78;98740.09;4842577;29;124260;-85
2023/12/27 22:53:38;;;;;;;3.30;2.50;;;10.40;68.30;;;10.70;38.54;98729.66;4845634;29;122903;-83
2023/12/27 22:56:06;;;;;;;3.10;2.47;;;13.50;70.70;;;10.69;38.47;98723.31;4858179;29;113148;-82
2023/12/27 22:58:35;;;;;;;3.73;2.17;;;10.50;67.30;;;10.69;38.32;98736.31;4856471;29;113987;-80
2023/12/27 23:01:02;;;;;;;2.50;1.97;;;12.40;69.20;;;10.66;38.96;98734.19;4860528;29;124658;-80
2023/12/27 23:03:29;;;;;;;3.23;2.20;;;13.70;70.50;;;10.69;38.71;98737.13;4868448;28;123388;-84
2023/12/27 23:05:58;;;;;;;5.00;2.70;;;12.30;68.70;;;10.70;38.27;98735.19;4855876;29;114797;-81
2023/12/27 23:08:30;;;;;;;4.40;2.60;;;12.20;68.50;;;10.71;38.11;98732.09;4853342;29;112127;-79
2023/12/27 23:10:58;;;;;;;2.40;2.03;;;12.60;69.30;;;10.72;38.42;98727.38;4854254;29;123432;-81
2023/12/27 23:16:01;;;;;;;2.53;1.67;;;10.40;67.20;;;10.76;38.60;98728.41;4858607;29;96874;-79
2023/12/27 23:18:27;;;;;;;4.00;2.20;;;10.50;67.40;;;10.78;38.40;98729.72;4843965;29;113323;-79
2023/12/27 23:20:59;;;;;;;3.90;2.53;;;11.70;68.30;;;10.80;38.71;98748.72;4849801;28;123662;-80
2023/12/27 23:23:26;;;;;;;2.57;1.90;;;10.50;67.20;;;10.83;38.21;98750.88;4836700;29;123953;-81
2023/12/27 23:25:53;;;;;;;5.30;2.43;;;10.50;66.70;;;10.84;38.22;98758.03;4837224;29;115196;-78
2023/12/27 23:28:23;;;;;;;2.00;1.70;;;12.70;69.20;;;10.87;38.09;98773.97;4835577;29;114138;-83
2023/12/27 23:30:49;;;;;;;2.87;1.90;;;10.60;67.10;;;10.90;38.59;98761.47;4840427;29;123998;-78
2023/12/27 23:33:19;;;;;;;4.10;1.90;;;10.60;67.40;;;10.93;38.22;98766.38;4844831;29;123612;-78
2023/12/27 23:41:01;;;;;;;3.30;2.03;;;11.00;77.30;;;11.50;41.54;98761.00;4863055;28;98447;-78
2023/12/27 23:43:27;;;;;;;2.60;1.80;;;11.10;74.30;;;11.50;39.69;98750.75;4861289;28;124016;-78
2023/12/27 23:45:54;;;;;;;4.13;2.17;;;12.80;72.80;;;11.47;39.22;98765.22;4860578;28;114167;-79
2023/12/27 23:48:20;;;;;;;2.93;1.80;;;12.00;70.80;;;11.43;38.45;98753.16;4853904;29;113192;-82
2023/12/27 23:50:47;;;;;;;2.23;1.70;;;11.00;67.90;;;11.42;37.47;98756.25;4835661;29;123931;-79
2023/12/27 23:53:18;;;;;;;3.40;2.10;;;8.00;65.00;;;11.39;37.22;98756.84;4869461;28;122907;-82
2023/12/27 23:55:47;;;;;;;4.00;1.87;;;11.00;65.80;;;11.38;37.58;98760.78;4844955;29;113441;-79
2023/12/27 23:58:17;;;;;;;2.40;1.80;;;10.90;65.80;;;11.36;37.10;98766.59;4861876;29;114207;-81
